Terminal Aerodrome Forecast
Issued by NWS Cleveland, OH

Home | Current Version | Previous Version | Text Only | Print | Product List | Glossary Off
Versions: 1 2 3 4 5 6 7 8 9 10 11 12 13 14 15

382
FTUS41 KCLE 100932 AAA
TAFTOL
TAF AMD
KTOL 100932Z 1010/1106 26015KT P6SM SCT025 OVC045
     FM101500 28015G22KT 6SM -SHSN OVC035
      TEMPO 1015/1019 2SM -SHSN OVC025=

USA.gov is the U.S. government's official web portal to all federal, state and local government web resources and services.